Observations for CHERBOURG MAUPERTUS, France (LFRC)

LFRC 230530Z AUTO 19015KT 6000 -RADZ OVC004 08/07 Q1019 TEMPO 1500 DZ BR BECMG 21015G25KT   
LFRC 230500Z AUTO 20018KT 9999 OVC004 08/07 Q1019   
LFRC 230430Z AUTO 20018KT 9999 OVC005 07/07 Q1019   
LFRC 230400Z AUTO 19012KT 9999 BKN005 BKN220 07/06 Q1020
LFRC 230330Z AUTO 19012KT 9999 BKN004 BKN220 07/07 Q1020
LFRC 230300Z AUTO 19010KT 9999 SCT004 SCT130 07/06 Q1020
LFRC 230230Z AUTO 19010KT CAVOK 07/06 Q1021 
LFRC 230200Z AUTO 21009KT CAVOK 07/05 Q1021 
LFRC 230130Z AUTO 22007KT 9999 FEW011 08/06 Q1021   
LFRC 230100Z AUTO 23010KT 9999 FEW010 OVC025 09/07 Q1021
LFRC 230030Z AUTO 23010KT 9999 BKN012 OVC031 09/07 Q1021
LFRC 230000Z AUTO 23008KT 9999 BKN011 BKN019 BKN025 09/07 Q1022 
LFRC 222330Z AUTO 22008KT 9999 OVC032 09/06 Q1022   
LFRC 222300Z AUTO 24008KT 9999 FEW024 OVC031 09/06 Q1022
LFRC 222230Z AUTO 25010KT 9999 OVC027 09/06 Q1021   
LFRC 222200Z AUTO 25011KT 9999 OVC027 09/06 Q1021   
LFRC 222130Z AUTO 24006KT 9999 FEW018 OVC026 09/06 Q1021
LFRC 222100Z AUTO 24008KT 9999 OVC028 09/06 Q1021   
LFRC 222030Z AUTO 25008KT 9999 OVC028 09/05 Q1021   
LFRC 222000Z AUTO 27009KT 9999 OVC027 09/05 Q1021   
LFRC 221930Z AUTO 29012KT 9999 OVC027 09/05 Q1021   
LFRC 221900Z AUTO 29013KT 9999 OVC027 09/05 Q1021   
LFRC 221830Z AUTO 28013KT 9999 OVC028 09/06 Q1020 NOSIG 
LFRC 221800Z AUTO 29009KT 9999 OVC024 09/06 Q1020 NOSIG 
LFRC 221730Z AUTO 30011KT 9999 OVC028 09/04 Q1020 NOSIG 
LFRC 221700Z AUTO 30016KT 9999 OVC026 09/05 Q1020 TEMPO BKN014  
LFRC 221630Z AUTO 29013KT 9999 FEW018 BKN023 OVC028 09/06 Q1019 TEMPO BKN014
LFRC 221600Z AUTO 30010KT 9999 OVC027 09/05 Q1018 TEMPO BKN014  
LFRC 221530Z AUTO 29016KT 9999 OVC027 10/05 Q1018 TEMPO BKN014  
LFRC 221500Z AUTO 30012KT 9999 OVC027 10/06 Q1018 TEMPO BKN014  
LFRC 221430Z AUTO 30015KT 9999 OVC029 10/06 Q1017 TEMPO BKN014  
LFRC 221400Z AUTO 29015KT 9999 FEW016 BKN028 OVC033 10/07 Q1017 TEMPO 30015G25KT
LFRC 221330Z AUTO 30013KT 9999 FEW015 SCT021 BKN038 10/07 Q1017 TEMPO 30015G25KT
LFRC 221300Z AUTO 30016KT 9999 FEW012 SCT038 10/08 Q1016 TEMPO 30015G25KT   
LFRC 221230Z AUTO 30015KT 270V330 CAVOK 10/07 Q1016 TEMPO 30015G25KT
LFRC 221200Z AUTO 30012KT 280V340 CAVOK 10/08 Q1015 TEMPO 30015G25KT
LFRC 221130Z AUTO 31012KT 9999 FEW010 10/07 Q1015 TEMPO 30015G25KT  
LFRC 221100Z AUTO 32010KT 280V350 9999 SCT047 09/07 Q1014 NOSIG 
LFRC 221030Z AUTO 33009KT 290V010 9999 FEW011 BKN031 BKN037 09/07 Q1013 NOSIG